Cuneyt Solakoglu — TCTN4 — position and weather

sailwx.info

Track history (hours):
 
Tides and Currents Weather Stations Pressure Air Temp Water Temp Dewpoint Dewpoint Depression Visibility Wind Speed Wind Dir Waves Ship Positions

Cuneyt Solakoglu

Last reported at 2016-Jun-28 20:30 UTC. Time now 2016-Jun-28 20:42 UTC.
Position N 45°38' E 013°38'.

Length 193 m; draft 6.4 m.

Type: Ship (hazmat cat A). MMSI: 271002676.

Date/timePositionNaut miles runAvg speedWind from/ knotsBaromVisibWave heightAir tempDewpointWater temp
2016-Jun-28 20:30N 45°38' E 013°38'1616.7
2016-Jun-28 19:33N 45°28' E 013°21'1918.7
2016-Jun-28 18:33N 45°10' E 013°17'2019.6
2016-Jun-28 17:33N 44°52' E 013°29'2019.6
2016-Jun-28 16:33N 44°35' E 013°42'2019.5
2016-Jun-28 15:33N 44°18' E 013°56'62615.2
2016-Jun-26 22:21N 36°48' E 023°29'1620.0
2016-Jun-26 21:33N 37°01' E 023°41'2620.2
2016-Jun-26 20:15N 37°22' E 023°59'3819.9
2016-Jun-26 18:19N 37°53' E 024°29'285 9.3
2016-Jun-25 11:31N 40°51' E 029°16'0 0.0
2016-Jun-25 10:33N 40°51' E 029°16'3 3.3
2016-Jun-25 09:33N 40°51' E 029°12'23216.1
2016-Jun-24 19:10N 38°39' E 025°04'1218.6
2016-Jun-24 18:31N 38°28' E 024°58'3618.1
2016-Jun-24 16:33N 37°56' E 024°37'5618.6
2016-Jun-24 13:33N 37°09' E 023°59'5819.0
2016-Jun-24 10:30N 36°25' E 023°13'10617.9
2016-Jun-24 04:33N 37°09' E 021°13'1919.4
2016-Jun-24 03:33N 37°25' E 020°58'8319.2
2016-Jun-23 23:13N 38°33' E 019°57'1318.6
2016-Jun-23 22:30N 38°44' E 019°48'46819.4
2016-Jun-22 22:23N 44°53' E 013°21'1619.3
2016-Jun-22 21:34N 45°06' E 013°08'1817.5
2016-Jun-22 20:33N 45°24' E 013°06'16 0.9
2016-Jun-22 03:24N 45°32' E 013°26'911.1
2016-Jun-22 02:34N 45°25' E 013°16'1110.9
2016-Jun-22 01:33N 45°14' E 013°16'1111.4
2016-Jun-22 00:33N 45°03' E 013°20'1111.4
2016-Jun-21 23:33N 44°53' E 013°27'1211.6
2016-Jun-21 22:33N 44°43' E 013°35'1111.4
2016-Jun-21 21:34N 44°33' E 013°43'1211.6
2016-Jun-21 20:33N 44°23' E 013°51'1211.8
2016-Jun-21 19:33N 44°13' E 014°00'10 9.9
2016-Jun-21 18:34N 44°03' E 014°03'1111.1
2016-Jun-21 17:33N 43°55' E 013°53'1111.3
2016-Jun-21 16:34N 43°45' E 013°45'1311.1
2016-Jun-21 15:23N 43°38' E 013°30'34415.6
2016-Jun-20 17:22N 39°41' E 019°03'15019.0
2016-Jun-20 09:30N 37°36' E 020°47'2018.8
2016-Jun-20 08:26N 37°20' E 021°03'11816.9
2016-Jun-20 01:27N 36°29' E 023°16'1719.6
2016-Jun-20 00:33N 36°44' E 023°27'2019.6
2016-Jun-19 23:33N 37°00' E 023°41'2019.8
2016-Jun-19 22:31N 37°18' E 023°55'2219.6
2016-Jun-19 21:23N 37°37' E 024°10'1619.5
2016-Jun-19 20:33N 37°49' E 024°23'4119.6
2016-Jun-19 18:28N 38°23' E 024°51'  
Track history (hours):
 
Tides and Currents Weather Stations Pressure Air Temp Water Temp Dewpoint Dewpoint Depression Visibility Wind Speed Wind Dir Waves Ship Positions

Cuneyt Solakoglu

Last reported at 2016-Jun-28 20:30 UTC. Time now 2016-Jun-28 20:42 UTC.
Position N 45°38' E 013°38'.

Length 193 m; draft 6.4 m.

Type: Ship (hazmat cat A). MMSI: 271002676.

Date/timePositionNaut miles runAvg speedWind from/ knotsBaromVisibWave heightAir tempDewpointWater temp
2016-Jun-28 20:30N 45°38' E 013°38'1616.7
2016-Jun-28 19:33N 45°28' E 013°21'1918.7
2016-Jun-28 18:33N 45°10' E 013°17'2019.6
2016-Jun-28 17:33N 44°52' E 013°29'2019.6
2016-Jun-28 16:33N 44°35' E 013°42'2019.5
2016-Jun-28 15:33N 44°18' E 013°56'62615.2
2016-Jun-26 22:21N 36°48' E 023°29'1620.0
2016-Jun-26 21:33N 37°01' E 023°41'2620.2
2016-Jun-26 20:15N 37°22' E 023°59'3819.9
2016-Jun-26 18:19N 37°53' E 024°29'285 9.3
2016-Jun-25 11:31N 40°51' E 029°16'0 0.0
2016-Jun-25 10:33N 40°51' E 029°16'3 3.3
2016-Jun-25 09:33N 40°51' E 029°12'23216.1
2016-Jun-24 19:10N 38°39' E 025°04'1218.6
2016-Jun-24 18:31N 38°28' E 024°58'3618.1
2016-Jun-24 16:33N 37°56' E 024°37'5618.6
2016-Jun-24 13:33N 37°09' E 023°59'5819.0
2016-Jun-24 10:30N 36°25' E 023°13'10617.9
2016-Jun-24 04:33N 37°09' E 021°13'1919.4
2016-Jun-24 03:33N 37°25' E 020°58'8319.2
2016-Jun-23 23:13N 38°33' E 019°57'1318.6
2016-Jun-23 22:30N 38°44' E 019°48'46819.4
2016-Jun-22 22:23N 44°53' E 013°21'1619.3
2016-Jun-22 21:34N 45°06' E 013°08'1817.5
2016-Jun-22 20:33N 45°24' E 013°06'16 0.9
2016-Jun-22 03:24N 45°32' E 013°26'911.1
2016-Jun-22 02:34N 45°25' E 013°16'1110.9
2016-Jun-22 01:33N 45°14' E 013°16'1111.4
2016-Jun-22 00:33N 45°03' E 013°20'1111.4
2016-Jun-21 23:33N 44°53' E 013°27'1211.6
2016-Jun-21 22:33N 44°43' E 013°35'1111.4
2016-Jun-21 21:34N 44°33' E 013°43'1211.6
2016-Jun-21 20:33N 44°23' E 013°51'1211.8
2016-Jun-21 19:33N 44°13' E 014°00'10 9.9
2016-Jun-21 18:34N 44°03' E 014°03'1111.1
2016-Jun-21 17:33N 43°55' E 013°53'1111.3
2016-Jun-21 16:34N 43°45' E 013°45'1311.1
2016-Jun-21 15:23N 43°38' E 013°30'34415.6
2016-Jun-20 17:22N 39°41' E 019°03'15019.0
2016-Jun-20 09:30N 37°36' E 020°47'2018.8
2016-Jun-20 08:26N 37°20' E 021°03'11816.9
2016-Jun-20 01:27N 36°29' E 023°16'1719.6
2016-Jun-20 00:33N 36°44' E 023°27'2019.6
2016-Jun-19 23:33N 37°00' E 023°41'2019.8
2016-Jun-19 22:31N 37°18' E 023°55'2219.6
2016-Jun-19 21:23N 37°37' E 024°10'1619.5
2016-Jun-19 20:33N 37°49' E 024°23'4119.6
2016-Jun-19 18:28N 38°23' E 024°51'  

Dump ship's entire track history